Time;durP1;ratioP1;P1;durP2;ratioP2;P2;SDS_P1;SDS_P2;PMS_P1;PMS_P2;Temp;Humidity;BMP_temperature;BMP_pressure;BME280_temperature;BME280_humidity;BME280_pressure;Samples;Min_cycle;Max_cycle;Signal;HPM_P1;HPM_P2
2022/07/02 00:00:46;;;;;;;6.97;4.50;;;;;;;22.33;nan;-24437.38;4991142;28;20335;-68
2022/07/02 00:03:15;;;;;;;7.18;4.18;;;;;;;22.32;nan;-24436.97;4994278;28;20216;-67
2022/07/02 00:05:54;;;;;;;7.20;4.40;;;;;;;22.58;nan;-24444.16;4995749;28;20216;-67
2022/07/02 00:08:20;;;;;;;6.68;4.03;;;;;;;22.57;nan;-24443.88;4996328;28;20270;-68
2022/07/02 00:10:47;;;;;;;6.93;4.35;;;;;;;22.36;nan;-24438.22;4997398;28;20241;-67
2022/07/02 00:13:13;;;;;;;6.65;4.47;;;;;;;22.55;nan;-24443.34;4994739;28;20922;-68
2022/07/02 00:15:38;;;;;;;9.05;4.90;;;;;;;22.42;nan;-24439.88;4996944;28;20188;-69
2022/07/02 00:18:04;;;;;;;7.85;4.97;;;;;;;22.38;nan;-24438.63;4996625;28;20873;-68
2022/07/02 00:20:31;;;;;;;6.32;4.18;;;;;;;22.29;nan;-24436.13;4992784;28;20736;-68
2022/07/02 00:22:56;;;;;;;7.85;4.15;;;;;;;22.02;nan;-24428.81;4999828;28;20788;-68
2022/07/02 00:25:23;;;;;;;6.72;3.90;;;;;;;22.23;nan;-24434.63;5018197;28;20191;-70
2022/07/02 00:27:50;;;;;;;9.05;4.60;;;;;;;22.07;nan;-24430.03;4998100;28;20199;-68
2022/07/02 00:30:16;;;;;;;8.68;5.15;;;;;;;21.98;nan;-24427.69;5000878;28;20191;-69
2022/07/02 00:32:42;;;;;;;7.70;4.53;;;;;;;22.17;nan;-24432.97;4997370;28;20207;-69
2022/07/02 00:35:09;;;;;;;7.22;4.93;;;;;;;21.99;nan;-24427.97;4996174;28;20294;-66
2022/07/02 00:37:39;;;;;;;7.35;4.65;;;;;;;21.98;nan;-24427.69;4993879;28;20222;-68
2022/07/02 00:40:06;;;;;;;9.60;4.75;;;;;;;22.05;nan;-24429.50;5001652;28;20231;-70
2022/07/02 00:42:34;;;;;;;7.93;4.65;;;;;;;21.83;nan;-24423.53;4997341;28;20211;-69
2022/07/02 00:45:00;;;;;;;8.23;4.72;;;;;;;21.98;nan;-24427.84;5003525;28;20379;-69
2022/07/02 00:47:28;;;;;;;9.27;4.63;;;;;;;21.97;nan;-24427.56;4998937;28;20188;-67
2022/07/02 00:49:54;;;;;;;8.27;4.45;;;;;;;21.92;nan;-24426.16;4998903;28;20598;-68
2022/07/02 00:52:19;;;;;;;7.65;5.10;;;;;;;22.01;nan;-24428.66;4998970;28;20267;-69
2022/07/02 00:54:45;;;;;;;7.60;5.05;;;;;;;22.00;nan;-24428.38;4995230;28;20194;-70
2022/07/02 00:57:11;;;;;;;8.57;5.15;;;;;;;21.84;nan;-24423.94;4998094;28;20187;-69
2022/07/02 00:59:37;;;;;;;8.95;5.07;;;;;;;21.70;nan;-24420.06;4997546;28;20184;-68
2022/07/02 01:02:04;;;;;;;6.85;4.30;;;;;;;21.91;nan;-24425.91;5001349;28;20675;-67
2022/07/02 01:04:32;;;;;;;10.10;5.32;;;;;;;20.25;nan;-24380.25;4995208;28;20191;-69
2022/07/02 01:07:06;;;;;;;7.72;5.03;;;;;;;21.55;nan;-24416.06;4995880;28;20184;-68
2022/07/02 01:12:25;;;;;;;9.70;5.75;;;;;;;21.84;nan;-24423.94;5001059;28;20191;-69
2022/07/02 01:14:52;;;;;;;7.50;4.50;;;;;;;21.83;nan;-24423.69;4998200;28;20242;-70
2022/07/02 01:17:18;;;;;;;9.00;5.28;;;;;;;21.34;nan;-24410.25;4999943;28;20191;-69
2022/07/02 01:19:43;;;;;;;8.00;4.53;;;;;;;21.80;nan;-24422.72;4997276;28;20234;-69
2022/07/02 01:22:12;;;;;;;7.78;4.70;;;;;;;21.92;nan;-24426.03;4996535;28;20215;-68
2022/07/02 01:24:38;;;;;;;9.05;5.18;;;;;;;21.85;nan;-24424.22;5000773;28;21026;-69
2022/07/02 01:27:04;;;;;;;8.15;5.00;;;;;;;21.83;nan;-24423.69;4997658;28;20188;-68
2022/07/02 01:29:30;;;;;;;7.30;5.10;;;;;;;21.64;nan;-24418.28;5002870;28;20667;-69
2022/07/02 01:31:55;;;;;;;6.35;4.40;;;;;;;21.84;nan;-24423.94;4996683;28;20191;-69
2022/07/02 01:34:21;;;;;;;7.88;5.22;;;;;;;21.68;nan;-24419.38;5000930;28;20180;-70
2022/07/02 01:36:48;;;;;;;8.40;5.05;;;;;;;21.67;nan;-24419.25;4997846;28;20184;-67
2022/07/02 01:39:13;;;;;;;8.98;5.40;;;;;;;21.50;nan;-24414.53;4991909;28;20224;-69
2022/07/02 01:41:39;;;;;;;8.88;5.22;;;;;;;21.39;nan;-24411.63;4996748;28;20311;-70
2022/07/02 01:44:08;;;;;;;9.05;5.18;;;;;;;21.76;nan;-24421.75;4998690;28;20192;-68
2022/07/02 01:46:34;;;;;;;9.00;4.68;;;;;;;21.63;nan;-24418.13;4998249;28;20212;-68
2022/07/02 01:49:00;;;;;;;8.77;4.90;;;;;;;21.45;nan;-24413.16;5001011;28;20697;-69
2022/07/02 01:51:26;;;;;;;12.35;5.60;;;;;;;21.71;nan;-24420.34;4994845;28;20184;-69
2022/07/02 01:53:51;;;;;;;8.75;5.10;;;;;;;21.72;nan;-24420.63;4997235;28;20191;-71
2022/07/02 01:56:17;;;;;;;9.05;5.38;;;;;;;21.42;nan;-24412.47;4997647;28;20180;-68
2022/07/02 01:58:43;;;;;;;8.40;4.97;;;;;;;21.72;nan;-24420.63;4994258;28;21197;-68
2022/07/02 02:01:09;;;;;;;10.10;5.20;;;;;;;21.75;nan;-24421.47;4999036;28;20267;-70
2022/07/02 02:03:34;;;;;;;8.75;5.45;;;;;;;21.74;nan;-24421.19;4999367;28;20207;-69
2022/07/02 02:06:00;;;;;;;8.85;5.22;;;;;;;21.73;nan;-24420.91;5000482;28;20254;-69
2022/07/02 02:08:25;;;;;;;10.77;5.28;;;;;;;21.74;nan;-24421.19;4995225;28;20185;-69
2022/07/02 02:10:51;;;;;;;7.88;5.10;;;;;;;21.84;nan;-24423.81;4997883;28;20219;-70
2022/07/02 02:13:16;;;;;;;7.65;4.97;;;;;;;21.59;nan;-24417.16;4996324;28;20709;-67
2022/07/02 02:15:42;;;;;;;8.65;5.07;;;;;;;21.85;nan;-24424.22;4996918;28;20951;-68
2022/07/02 02:18:07;;;;;;;9.93;5.25;;;;;;;21.91;nan;-24425.91;4995070;28;20596;-68
2022/07/02 02:20:33;;;;;;;7.25;4.68;;;;;;;21.59;nan;-24417.03;4994295;28;20249;-68
2022/07/02 02:23:00;;;;;;;8.55;5.18;;;;;;;17.11;nan;-24293.78;4994386;28;20211;-68
2022/07/02 02:25:26;;;;;;;8.63;5.53;;;;;;;21.95;nan;-24426.88;4996213;28;20211;-69
2022/07/02 02:27:51;;;;;;;8.40;5.00;;;;;;;21.85;nan;-24424.09;4992571;28;20270;-69
2022/07/02 02:30:17;;;;;;;8.13;4.90;;;;;;;21.59;nan;-24417.03;4993373;28;20196;-70
2022/07/02 02:32:42;;;;;;;8.45;5.22;;;;;;;21.76;nan;-24421.59;4995523;28;20202;-70
2022/07/02 02:35:08;;;;;;;7.78;5.32;;;;;;;21.45;nan;-24413.28;4991986;28;20859;-68
2022/07/02 02:37:33;;;;;;;8.35;5.13;;;;;;;21.50;nan;-24414.53;4994682;28;20191;-68
2022/07/02 02:39:58;;;;;;;10.68;5.32;;;;;;;21.34;nan;-24410.09;4991852;28;20963;-68
2022/07/02 02:42:24;;;;;;;8.63;4.95;;;;;;;21.62;nan;-24417.84;4993742;28;20202;-68
2022/07/02 02:44:49;;;;;;;8.65;4.93;;;;;;;21.58;nan;-24416.75;4995449;28;20275;-68
2022/07/02 02:47:15;;;;;;;8.10;5.15;;;;;;;21.28;nan;-24408.56;4994687;28;20272;-69
2022/07/02 02:49:40;;;;;;;10.40;5.55;;;;;;;21.46;nan;-24413.44;4994085;28;20199;-68
2022/07/02 02:52:06;;;;;;;8.70;5.15;;;;;;;21.50;nan;-24414.53;4993920;28;20219;-69
2022/07/02 02:54:32;;;;;;;8.70;5.38;;;;;;;21.53;nan;-24415.50;4990912;28;20941;-69
2022/07/02 02:56:57;;;;;;;8.65;4.93;;;;;;;21.42;nan;-24412.47;4991731;28;20211;-68
2022/07/02 02:59:23;;;;;;;9.32;5.03;;;;;;;21.77;nan;-24422.00;4999353;28;20187;-69
2022/07/02 03:01:48;;;;;;;8.23;5.35;;;;;;;21.65;nan;-24418.69;4993617;28;20226;-69
2022/07/02 03:04:13;;;;;;;9.15;5.32;;;;;;;22.14;nan;-24432.13;5004296;28;20241;-69
2022/07/02 03:06:39;;;;;;;9.98;5.70;;;;;;;22.36;nan;-24438.22;4992508;28;20199;-69
2022/07/02 03:09:04;;;;;;;8.57;5.63;;;;;;;22.81;nan;-24450.53;4996409;28;20275;-70
2022/07/02 03:11:31;;;;;;;9.38;5.55;;;;;;;23.26;nan;-24462.69;4988719;28;22604;-69
2022/07/02 03:13:57;;;;;;;10.32;5.88;;;;;;;23.80;nan;-24477.31;4991154;28;20191;-69
2022/07/02 03:16:23;;;;;;;12.25;5.80;;;;;;;24.00;nan;-24482.84;4993555;28;20187;-67
2022/07/02 03:18:48;;;;;;;9.07;6.20;;;;;;;24.63;nan;-24500.22;4993624;28;20246;-69
2022/07/02 03:21:14;;;;;;;9.43;5.35;;;;;;;25.24;nan;-24516.75;4990090;28;20758;-67
2022/07/02 03:23:39;;;;;;;7.40;4.78;;;;;;;25.58;nan;-24525.97;4991046;28;20187;-67
2022/07/02 03:26:05;;;;;;;8.80;5.22;;;;;;;26.16;nan;-24541.78;4997033;28;20202;-68
2022/07/02 03:28:30;;;;;;;7.65;5.10;;;;;;;26.03;nan;-24538.19;4995558;28;20188;-70
2022/07/02 03:30:56;;;;;;;8.70;4.80;;;;;;;26.95;nan;-24563.06;4997594;28;21028;-69
2022/07/02 03:33:22;;;;;;;8.70;5.40;;;;;;;27.54;nan;-24579.09;4998251;28;20187;-69
2022/07/02 03:35:47;;;;;;;10.02;6.20;;;;;;;27.85;nan;-24587.59;4993805;28;20263;-67
2022/07/02 03:38:13;;;;;;;11.25;5.93;;;;;;;28.32;nan;-24600.19;4990364;28;20257;-70
2022/07/02 03:40:38;;;;;;;9.65;5.60;;;;;;;29.04;nan;-24619.75;4990580;28;20210;-69
2022/07/02 03:43:04;;;;;;;9.57;6.03;;;;;;;29.16;nan;-24622.88;4992880;28;20203;-70
2022/07/02 03:45:29;;;;;;;8.05;5.20;;;;;;;29.92;nan;-24643.38;4994915;28;20180;-67
2022/07/02 03:47:55;;;;;;;8.15;5.07;;;;;;;30.15;nan;-24649.63;4990281;28;20196;-67
2022/07/02 03:50:20;;;;;;;10.77;6.30;;;;;;;30.31;nan;-24654.00;4992028;28;20196;-69
2022/07/02 03:52:45;;;;;;;8.73;5.47;;;;;;;31.00;nan;-24672.53;4998570;28;20181;-68
2022/07/02 03:55:11;;;;;;;8.48;4.93;;;;;;;31.49;nan;-24685.84;4988398;28;20200;-68
2022/07/02 03:57:36;;;;;;;7.45;5.15;;;;;;;32.40;nan;-24710.16;5015460;28;20562;-71
2022/07/02 04:00:04;;;;;;;8.63;5.32;;;;;;;32.53;nan;-24713.56;4992006;28;20870;-69
2022/07/02 04:02:29;;;;;;;6.60;4.78;;;;;;;33.03;nan;-24727.13;4992242;28;20302;-69
2022/07/02 04:04:55;;;;;;;8.00;5.18;;;;;;;33.74;nan;-24746.09;4996520;28;20179;-69
2022/07/02 04:07:20;;;;;;;12.55;4.85;;;;;;;33.90;nan;-24750.41;4986839;28;20191;-68
2022/07/02 04:09:46;;;;;;;6.95;4.80;;;;;;;34.29;nan;-24760.84;4990921;28;20199;-68
2022/07/02 04:12:11;;;;;;;9.90;5.03;;;;;;;34.65;nan;-24770.41;4989643;28;20260;-67
2022/07/02 04:14:37;;;;;;;8.23;4.90;;;;;;;34.33;nan;-24761.78;4992610;28;20201;-69
2022/07/02 04:17:02;;;;;;;7.82;5.30;;;;;;;34.21;nan;-24758.53;4991745;28;20175;-70
2022/07/02 04:19:28;;;;;;;8.95;5.25;;;;;;;34.10;nan;-24755.81;4991821;28;20235;-69
2022/07/02 04:21:54;;;;;;;7.78;5.40;;;;;;;33.83;nan;-24748.53;4989761;28;20316;-68
2022/07/02 04:24:20;;;;;;;8.20;5.50;;;;;;;33.78;nan;-24747.16;4988085;28;20179;-68
2022/07/02 04:26:45;;;;;;;8.27;5.28;;;;;;;33.94;nan;-24751.38;4993768;28;20198;-69
2022/07/02 04:29:11;;;;;;;8.73;5.18;;;;;;;34.13;nan;-24756.63;4992702;28;20194;-69
2022/07/02 04:31:36;;;;;;;8.10;5.22;;;;;;;34.37;nan;-24763.00;4991464;28;20262;-70
2022/07/02 04:34:02;;;;;;;8.55;5.10;;;;;;;34.61;nan;-24769.34;4990230;28;21965;-68
2022/07/02 04:36:27;;;;;;;6.70;4.72;;;;;;;34.94;nan;-24778.25;4993953;28;20241;-69
2022/07/02 04:38:53;;;;;;;6.32;4.50;;;;;;;34.74;nan;-24772.84;4990606;28;20183;-68
2022/07/02 04:41:18;;;;;;;7.22;4.75;;;;;;;35.11;nan;-24782.56;4994507;28;20206;-71
2022/07/02 04:43:44;;;;;;;9.25;5.25;;;;;;;34.83;nan;-24775.16;4991359;28;20573;-69
2022/07/02 04:46:09;;;;;;;7.65;5.32;;;;;;;34.12;nan;-24756.22;4992035;28;20185;-69
2022/07/02 04:48:35;;;;;;;7.30;4.70;;;;;;;33.36;nan;-24735.78;4989614;28;20198;-70
2022/07/02 04:51:01;;;;;;;8.73;5.03;;;;;;;33.54;nan;-24740.66;4988730;28;20282;-69
2022/07/02 04:53:26;;;;;;;11.23;5.43;;;;;;;32.38;nan;-24709.63;4985891;28;20197;-70
2022/07/02 04:55:52;;;;;;;9.00;5.97;;;;;;;33.15;nan;-24730.25;4986364;28;20351;-70
2022/07/02 04:58:17;;;;;;;8.57;5.55;;;;;;;33.19;nan;-24731.31;4988289;28;20195;-70
2022/07/02 05:00:43;;;;;;;9.35;5.80;;;;;;;32.61;nan;-24715.72;4985112;28;20560;-70
2022/07/02 05:03:08;;;;;;;9.93;5.88;;;;;;;32.37;nan;-24709.50;4984525;28;21008;-68
2022/07/02 05:05:34;;;;;;;8.77;5.85;;;;;;;32.17;nan;-24703.94;4988850;28;20183;-68
2022/07/02 05:07:59;;;;;;;9.52;6.13;;;;;;;32.51;nan;-24713.16;4995192;28;20233;-69
2022/07/02 05:10:24;;;;;;;9.57;5.90;;;;;;;32.72;nan;-24718.72;4998086;28;20190;-69
2022/07/02 05:12:50;;;;;;;8.98;5.55;;;;;;;32.08;nan;-24701.63;4993696;28;20198;-69
2022/07/02 05:15:16;;;;;;;10.27;5.88;;;;;;;32.92;nan;-24724.16;4997669;28;20183;-69
2022/07/02 05:17:41;;;;;;;9.02;5.82;;;;;;;32.67;nan;-24717.38;4995134;28;21063;-69
2022/07/02 05:20:07;;;;;;;8.15;5.55;;;;;;;33.18;nan;-24731.06;4991309;28;20234;-70
2022/07/02 05:22:32;;;;;;;8.02;5.35;;;;;;;33.01;nan;-24726.59;4987954;28;21954;-69
2022/07/02 05:24:58;;;;;;;9.32;5.53;;;;;;;32.96;nan;-24725.22;4993610;28;20539;-67
2022/07/02 05:27:23;;;;;;;10.88;5.60;;;;;;;32.68;nan;-24717.63;4992977;28;21360;-70
2022/07/02 05:29:49;;;;;;;9.18;5.28;;;;;;;33.13;nan;-24729.84;4992633;28;20572;-69
2022/07/02 05:32:14;;;;;;;7.60;5.20;;;;;;;33.29;nan;-24734.03;4995994;28;20747;-69
2022/07/02 05:34:39;;;;;;;8.50;5.60;;;;;;;33.37;nan;-24736.06;4996654;28;20705;-68
2022/07/02 05:37:05;;;;;;;10.95;5.70;;;;;;;33.38;nan;-24736.34;4993361;28;20566;-69
2022/07/02 05:39:30;;;;;;;7.55;5.28;;;;;;;32.41;nan;-24710.56;4994179;28;20186;-69
2022/07/02 05:41:56;;;;;;;9.05;5.20;;;;;;;32.52;nan;-24713.44;4993262;28;20211;-68
2022/07/02 05:44:22;;;;;;;7.85;6.20;;;;;;;32.30;nan;-24707.59;4990743;28;20202;-68
2022/07/02 05:46:47;;;;;;;8.82;6.10;;;;;;;32.31;nan;-24707.88;4992672;28;20179;-69
2022/07/02 05:49:13;;;;;;;8.88;6.30;;;;;;;32.03;nan;-24700.25;4995540;28;20182;-70
2022/07/02 05:51:38;;;;;;;8.57;5.72;;;;;;;31.52;nan;-24686.66;4987943;28;21308;-68
2022/07/02 05:54:04;;;;;;;8.15;5.90;;;;;;;31.31;nan;-24680.97;4993299;28;20201;-69
2022/07/02 05:56:29;;;;;;;8.32;5.55;;;;;;;30.74;nan;-24665.56;4990573;28;20658;-69
2022/07/02 05:58:55;;;;;;;9.60;5.90;;;;;;;30.33;nan;-24654.53;4992887;28;20183;-69
2022/07/02 06:01:20;;;;;;;8.77;5.03;;;;;;;30.07;nan;-24647.44;4985543;28;20236;-70
2022/07/02 06:03:46;;;;;;;10.93;5.95;;;;;;;29.77;nan;-24639.41;4990917;28;20191;-69
2022/07/02 06:08:56;;;;;;;9.93;5.60;;;;;;;29.13;nan;-24622.19;4989748;28;20990;-69
2022/07/02 06:11:21;;;;;;;11.20;5.53;;;;;;;29.12;nan;-24621.78;4990565;28;20199;-69
2022/07/02 06:13:46;;;;;;;9.68;5.82;;;;;;;29.12;nan;-24621.94;4987473;28;20643;-69
2022/07/02 06:16:12;;;;;;;9.77;5.93;;;;;;;29.23;nan;-24624.94;4987276;28;20651;-71
2022/07/02 06:18:37;;;;;;;7.30;5.05;;;;;;;29.27;nan;-24626.03;4985101;28;20274;-69
2022/07/02 06:21:03;;;;;;;9.30;5.93;;;;;;;29.39;nan;-24629.31;4993101;28;20582;-70
2022/07/02 06:23:28;;;;;;;7.65;5.22;;;;;;;28.96;nan;-24617.69;4989019;28;20178;-69
2022/07/02 06:25:54;;;;;;;9.30;5.53;;;;;;;28.80;nan;-24613.19;4989351;28;20711;-69
2022/07/02 06:28:19;;;;;;;9.15;5.53;;;;;;;29.07;nan;-24620.44;4990486;28;20337;-69
2022/07/02 06:30:45;;;;;;;10.07;5.72;;;;;;;29.21;nan;-24624.25;4987267;28;20611;-72
2022/07/02 06:33:11;;;;;;;8.80;5.32;;;;;;;29.31;nan;-24627.00;4992390;28;20187;-69
2022/07/02 06:35:37;;;;;;;8.45;5.25;;;;;;;28.81;nan;-24613.47;4991471;28;20521;-69
2022/07/02 06:38:02;;;;;;;8.85;5.68;;;;;;;28.66;nan;-24609.50;4995170;28;20187;-69
2022/07/02 06:40:28;;;;;;;7.50;5.45;;;;;;;28.90;nan;-24616.06;4992734;28;20191;-70
2022/07/02 06:42:54;;;;;;;8.18;5.57;;;;;;;28.77;nan;-24612.50;4990185;28;20644;-69
2022/07/02 06:45:19;;;;;;;9.27;5.45;;;;;;;29.39;nan;-24629.31;4989692;28;20184;-69
2022/07/02 06:47:44;;;;;;;9.80;6.05;;;;;;;29.30;nan;-24626.84;4990530;28;20265;-71
2022/07/02 06:50:11;;;;;;;8.65;6.05;;;;;;;28.87;nan;-24615.09;4993148;28;20195;-69
2022/07/02 06:52:36;;;;;;;12.32;5.97;;;;;;;28.82;nan;-24613.88;4990265;28;20187;-70
2022/07/02 06:55:03;;;;;;;9.05;6.07;;;;;;;28.93;nan;-24616.88;4989514;28;20180;-70
2022/07/02 06:57:29;;;;;;;9.52;5.65;;;;;;;28.66;nan;-24609.50;4990429;28;20207;-69
2022/07/02 06:59:55;;;;;;;8.65;6.15;;;;;;;29.15;nan;-24622.59;4989703;28;20263;-69
2022/07/02 07:02:21;;;;;;;10.05;6.65;;;;;;;29.11;nan;-24621.53;4990455;28;20214;-68
2022/07/02 07:04:47;;;;;;;8.75;6.55;;;;;;;28.57;nan;-24607.03;4986379;28;20743;-69
2022/07/02 07:07:12;;;;;;;9.65;6.57;;;;;;;28.86;nan;-24614.81;4992900;28;20278;-71
2022/07/02 07:09:38;;;;;;;9.48;5.90;;;;;;;28.99;nan;-24618.50;4992021;28;20281;-70
2022/07/02 07:12:05;;;;;;;9.32;6.15;;;;;;;29.44;nan;-24630.53;4988205;28;20662;-68
2022/07/02 07:14:31;;;;;;;11.43;6.45;;;;;;;29.64;nan;-24636.00;4997431;28;20191;-67
2022/07/02 07:16:57;;;;;;;14.68;6.47;;;;;;;29.95;nan;-24644.31;4989786;28;20245;-69
2022/07/02 07:19:22;;;;;;;9.85;5.97;;;;;;;29.90;nan;-24642.97;4990167;28;20693;-69
2022/07/02 07:21:48;;;;;;;9.15;6.25;;;;;;;30.03;nan;-24646.50;4987723;28;20253;-69
2022/07/02 07:24:13;;;;;;;8.38;5.80;;;;;;;29.74;nan;-24638.59;4989082;28;20176;-71
2022/07/02 07:26:39;;;;;;;12.40;6.53;;;;;;;29.70;nan;-24637.63;4989621;28;20590;-69
2022/07/02 07:29:06;;;;;;;8.30;5.65;;;;;;;29.50;nan;-24632.19;4989650;28;20183;-68
2022/07/02 07:31:33;;;;;;;10.38;6.32;;;;;;;29.94;nan;-24644.03;4992550;28;20184;-70
2022/07/02 07:33:59;;;;;;;9.40;6.53;;;;;;;29.68;nan;-24637.09;4992569;28;20203;-70
2022/07/02 07:36:26;;;;;;;8.75;5.63;;;;;;;30.05;nan;-24646.91;4990615;28;20277;-71
2022/07/02 07:38:52;;;;;;;8.75;5.97;;;;;;;30.22;nan;-24651.53;4988327;28;20191;-68
2022/07/02 07:41:19;;;;;;;9.68;5.75;;;;;;;30.50;nan;-24659.19;4986980;28;20709;-70
2022/07/02 07:43:45;;;;;;;9.85;6.07;;;;;;;30.34;nan;-24654.81;4993258;28;20190;-68
2022/07/02 07:46:10;;;;;;;10.52;6.15;;;;;;;29.98;nan;-24645.00;4983915;28;20270;-71
2022/07/02 07:48:36;;;;;;;10.02;6.22;;;;;;;29.81;nan;-24640.50;4986348;28;20192;-70
2022/07/02 07:51:02;;;;;;;9.23;6.32;;;;;;;29.93;nan;-24643.78;4984569;28;20251;-69
2022/07/02 07:53:28;;;;;;;9.57;6.22;;;;;;;30.44;nan;-24657.41;4993697;28;20186;-69
2022/07/02 07:55:54;;;;;;;8.60;5.72;;;;;;;30.51;nan;-24659.44;4988074;28;20187;-67
2022/07/02 07:58:20;;;;;;;13.50;6.35;;;;;;;30.55;nan;-24660.41;4987915;28;20199;-69
2022/07/02 08:00:46;;;;;;;9.52;5.85;;;;;;;31.04;nan;-24673.59;4987185;28;20202;-69
2022/07/02 08:03:14;;;;;;;9.13;6.28;;;;;;;31.32;nan;-24681.22;4982285;28;20234;-70
2022/07/02 08:05:43;;;;;;;7.93;5.82;;;;;;;31.28;nan;-24680.13;4993883;28;20659;-69
2022/07/02 08:08:09;;;;;;;9.20;6.18;;;;;;;31.26;nan;-24679.59;4991932;28;20192;-67
2022/07/02 08:10:34;;;;;;;8.93;6.45;;;;;;;31.25;nan;-24679.19;4991700;28;20190;-69
2022/07/02 08:13:00;;;;;;;9.75;6.28;;;;;;;30.85;nan;-24668.44;4997730;28;20627;-70
2022/07/02 08:15:26;;;;;;;9.45;6.45;;;;;;;30.87;nan;-24668.97;4991218;28;20187;-71
2022/07/02 08:17:52;;;;;;;9.80;6.55;;;;;;;30.34;nan;-24654.81;4983108;28;20643;-68
2022/07/02 08:20:17;;;;;;;10.00;6.72;;;;;;;30.80;nan;-24667.22;4986111;28;20258;-70
2022/07/02 08:22:46;;;;;;;8.27;6.30;;;;;;;30.88;nan;-24669.38;4987931;28;20272;-73
2022/07/02 08:25:14;;;;;;;10.30;7.00;;;;;;;30.84;nan;-24668.31;4981729;28;20202;-70
2022/07/02 08:27:40;;;;;;;11.95;7.30;;;;;;;31.02;nan;-24673.06;4984726;28;20179;-70
2022/07/02 08:30:07;;;;;;;10.40;7.32;;;;;;;31.40;nan;-24683.28;4990286;28;20248;-68
2022/07/02 08:32:32;;;;;;;8.82;6.70;;;;;;;31.33;nan;-24681.38;4990018;28;20226;-68
2022/07/02 08:34:58;;;;;;;8.90;6.70;;;;;;;31.00;nan;-24672.66;4988569;28;20654;-69
2022/07/02 08:37:25;;;;;;;9.93;7.20;;;;;;;30.76;nan;-24666.13;4982416;28;20183;-71
2022/07/02 08:39:50;;;;;;;9.70;6.60;;;;;;;30.81;nan;-24667.47;4984680;28;20280;-68
2022/07/02 08:42:26;;;;;;;9.23;6.65;;;;;;;31.05;nan;-24673.88;4986055;28;20702;-69
2022/07/02 08:44:54;;;;;;;9.02;6.85;;;;;;;31.38;nan;-24682.72;4984517;28;20197;-69
2022/07/02 08:47:20;;;;;;;9.60;6.65;;;;;;;31.00;nan;-24672.66;4986296;28;20658;-70
2022/07/02 08:49:51;;;;;;;10.63;6.53;;;;;;;31.11;nan;-24675.66;4985462;28;20369;-69
2022/07/02 08:52:18;;;;;;;9.80;6.65;;;;;;;31.23;nan;-24678.66;4990516;28;20946;-70
2022/07/02 08:54:45;;;;;;;9.43;6.35;;;;;;;31.29;nan;-24680.41;4987981;28;20211;-69
2022/07/02 08:57:12;;;;;;;7.43;5.85;;;;;;;31.71;nan;-24691.56;4989251;28;20193;-67
2022/07/02 08:59:38;;;;;;;8.55;6.60;;;;;;;31.50;nan;-24685.97;4985765;28;20274;-69
2022/07/02 09:02:05;;;;;;;8.75;6.05;;;;;;;32.02;nan;-24699.97;4989694;28;20258;-73
2022/07/02 09:04:33;;;;;;;13.02;6.30;;;;;;;32.17;nan;-24704.06;4995021;28;20300;-68
2022/07/02 09:07:02;;;;;;;8.73;6.05;;;;;;;31.98;nan;-24698.91;4989064;28;20190;-67
2022/07/02 09:09:29;;;;;;;7.47;5.53;;;;;;;31.53;nan;-24686.94;4991039;28;20190;-70
2022/07/02 09:11:56;;;;;;;8.20;6.18;;;;;;;31.66;nan;-24690.22;4988780;28;20709;-70
2022/07/02 09:14:22;;;;;;;9.63;6.10;;;;;;;31.22;nan;-24678.50;4992191;28;20190;-70
2022/07/02 09:16:49;;;;;;;8.10;5.93;;;;;;;31.74;nan;-24692.50;4991513;28;20248;-69
2022/07/02 09:19:16;;;;;;;8.90;5.80;;;;;;;31.94;nan;-24697.81;4985311;28;20234;-68
2022/07/02 09:21:49;;;;;;;8.82;5.80;;;;;;;32.03;nan;-24700.13;4991474;28;20226;-68
2022/07/02 09:24:15;;;;;;;7.18;5.75;;;;;;;32.32;nan;-24708.13;4991823;28;20931;-70
2022/07/02 09:26:41;;;;;;;7.78;5.05;;;;;;;32.66;nan;-24717.22;4991956;28;20183;-68
2022/07/02 09:29:06;;;;;;;8.27;5.60;;;;;;;32.74;nan;-24719.25;4990869;28;20179;-70
2022/07/02 09:31:32;;;;;;;8.05;5.75;;;;;;;32.93;nan;-24724.28;4989676;28;20892;-68
2022/07/02 09:33:59;;;;;;;8.70;6.72;;;;;;;33.03;nan;-24726.97;4991331;28;20176;-68
2022/07/02 09:36:25;;;;;;;8.15;5.60;;;;;;;33.42;nan;-24737.56;4984838;28;20195;-68
2022/07/02 09:38:53;;;;;;;7.03;5.63;;;;;;;33.58;nan;-24741.88;4985537;28;20705;-68
2022/07/02 09:41:21;;;;;;;6.93;5.63;;;;;;;33.91;nan;-24750.69;4985284;28;21959;-69
2022/07/02 09:43:58;;;;;;;8.60;5.75;;;;;;;33.59;nan;-24742.16;4994614;28;20234;-69
2022/07/02 09:46:23;;;;;;;8.38;6.00;;;;;;;33.62;nan;-24742.84;4987176;28;20183;-67
2022/07/02 09:48:49;;;;;;;7.53;6.13;;;;;;;33.50;nan;-24739.59;4992274;28;20184;-68
2022/07/02 09:51:15;;;;;;;8.05;6.10;;;;;;;33.36;nan;-24735.94;4988633;28;20642;-69
2022/07/02 09:53:52;;;;;;;7.38;5.80;;;;;;;33.11;nan;-24729.16;4990278;28;20694;-73
2022/07/02 09:56:22;;;;;;;7.60;5.68;;;;;;;33.52;nan;-24740.25;4987950;28;20247;-69
2022/07/02 09:58:49;;;;;;;10.02;6.15;;;;;;;33.33;nan;-24734.97;4988166;28;20305;-69
2022/07/02 10:01:22;;;;;;;7.60;6.18;;;;;;;32.95;nan;-24724.97;4991289;28;20659;-68
2022/07/02 10:03:51;;;;;;;7.32;5.30;;;;;;;32.93;nan;-24724.41;4983128;28;20206;-69
2022/07/02 10:06:18;;;;;;;7.18;5.20;;;;;;;33.10;nan;-24729.03;4984433;28;20249;-69
2022/07/02 10:08:44;;;;;;;6.82;5.30;;;;;;;32.57;nan;-24714.78;4983618;28;20191;-70
2022/07/02 10:11:11;;;;;;;8.00;5.65;;;;;;;33.18;nan;-24731.19;4980786;28;20710;-67
2022/07/02 10:13:37;;;;;;;7.55;5.70;;;;;;;33.30;nan;-24734.44;4985560;28;20192;-69
2022/07/02 10:16:04;;;;;;;7.38;5.82;;;;;;;33.58;nan;-24741.75;4990529;28;20195;-68
2022/07/02 10:18:29;;;;;;;7.95;5.60;;;;;;;33.60;nan;-24742.44;4984720;28;20288;-72
2022/07/02 10:20:56;;;;;;;7.50;5.55;;;;;;;33.36;nan;-24735.78;4985093;28;20191;-68
2022/07/02 10:23:23;;;;;;;7.90;5.60;;;;;;;33.40;nan;-24736.88;4989104;28;20199;-67
2022/07/02 10:25:49;;;;;;;6.55;5.07;;;;;;;33.47;nan;-24738.78;4987911;28;21212;-69
2022/07/02 10:28:14;;;;;;;7.07;5.57;;;;;;;32.88;nan;-24722.94;4990576;28;20230;-69
2022/07/02 10:30:41;;;;;;;8.77;5.93;;;;;;;33.51;nan;-24739.84;4984918;28;20187;-69
2022/07/02 10:33:31;;;;;;;8.27;5.97;;;;;;;33.38;nan;-24736.34;4984508;28;20184;-68
2022/07/02 10:35:59;;;;;;;7.70;6.00;;;;;;;33.07;nan;-24728.06;4870677;28;21147;-71
2022/07/02 10:38:37;;;;;;;8.32;6.35;;;;;;;33.27;nan;-24733.63;4226934;28;20892;-69
2022/07/02 10:41:04;;;;;;;8.63;5.32;;;;;;;33.64;nan;-24743.38;4739265;28;20195;-70
2022/07/02 10:43:37;;;;;;;7.90;5.75;;;;;;;33.69;nan;-24744.75;4988387;28;20285;-68
2022/07/02 10:46:08;;;;;;;7.30;5.00;;;;;;;33.80;nan;-24747.72;4983638;28;20584;-67
2022/07/02 10:48:35;;;;;;;6.47;4.78;;;;;;;33.47;nan;-24738.78;4983846;28;21146;-70
2022/07/02 10:51:01;;;;;;;7.55;5.55;;;;;;;33.42;nan;-24737.41;4986339;28;20674;-70
2022/07/02 10:53:28;;;;;;;7.55;5.20;;;;;;;33.19;nan;-24731.47;4988481;28;20266;-70
2022/07/02 10:55:53;;;;;;;6.70;5.03;;;;;;;33.63;nan;-24743.09;4984904;28;20188;-68
2022/07/02 10:58:22;;;;;;;7.57;5.43;;;;;;;33.72;nan;-24745.53;4982570;28;20643;-70
2022/07/02 11:00:48;;;;;;;6.97;5.15;;;;;;;33.84;nan;-24748.66;4985118;28;20310;-70
2022/07/02 11:03:25;;;;;;;7.95;5.72;;;;;;;33.97;nan;-24752.31;4982516;28;20756;-68
2022/07/02 11:05:52;;;;;;;7.93;5.13;;;;;;;34.01;nan;-24753.41;4982197;28;20186;-69
2022/07/02 11:08:46;;;;;;;7.10;5.40;;;;;;;34.20;nan;-24758.25;4979860;28;20191;-68
2022/07/02 11:11:36;;;;;;;7.30;5.60;;;;;;;34.28;nan;-24760.44;4985540;28;20207;-70
2022/07/02 11:14:12;;;;;;;7.55;5.55;;;;;;;34.62;nan;-24769.63;4977580;28;20207;-67
2022/07/02 11:16:51;;;;;;;8.02;5.70;;;;;;;34.90;nan;-24777.19;4981551;28;20182;-69
2022/07/02 11:19:26;;;;;;;6.70;5.15;;;;;;;34.95;nan;-24778.53;4989960;28;20219;-69
2022/07/02 11:22:03;;;;;;;7.15;5.47;;;;;;;34.92;nan;-24777.72;4980562;28;20214;-69
2022/07/02 11:24:30;;;;;;;7.97;5.60;;;;;;;34.77;nan;-24773.53;4986999;28;20738;-70
2022/07/02 11:26:57;;;;;;;7.07;5.28;;;;;;;35.13;nan;-24783.13;4988935;28;20186;-70
2022/07/02 11:29:22;;;;;;;9.00;5.47;;;;;;;34.98;nan;-24779.34;4985844;28;20654;-67
2022/07/02 11:31:50;;;;;;;7.53;5.25;;;;;;;34.16;nan;-24757.44;4985621;28;20176;-70
2022/07/02 11:34:19;;;;;;;7.90;5.18;;;;;;;34.18;nan;-24757.84;4987230;28;20187;-69
2022/07/02 11:36:45;;;;;;;9.20;4.78;;;;;;;34.08;nan;-24755.16;4988634;28;20278;-71
2022/07/02 11:39:13;;;;;;;7.25;5.18;;;;;;;34.04;nan;-24754.19;4986257;28;20653;-70
2022/07/02 11:41:39;;;;;;;8.13;5.45;;;;;;;34.37;nan;-24762.84;4993582;28;20186;-68
2022/07/02 11:44:26;;;;;;;6.78;4.90;;;;;;;33.83;nan;-24748.53;4995089;28;20171;-69